sensor_id;sensor_type;location;lat;lon;timestamp;temperature;humidity
5055;DHT22;13829;48.990;8.346;2024-01-11T00:00:45;-2.20;99.90
5055;DHT22;13829;48.990;8.346;2024-01-11T00:03:14;-2.30;99.90
5055;DHT22;13829;48.990;8.346;2024-01-11T00:05:41;-2.30;99.90
5055;DHT22;13829;48.990;8.346;2024-01-11T00:08:08;-2.40;99.90
5055;DHT22;13829;48.990;8.346;2024-01-11T00:10:35;-2.30;99.90
5055;DHT22;13829;48.990;8.346;2024-01-11T00:13:02;-2.40;99.90
5055;DHT22;13829;48.990;8.346;2024-01-11T00:15:29;-2.30;99.90
5055;DHT22;13829;48.990;8.346;2024-01-11T00:17:56;-2.20;99.90
5055;DHT22;13829;48.990;8.346;2024-01-11T00:20:25;-2.20;99.90
5055;DHT22;13829;48.990;8.346;2024-01-11T00:22:51;-2.20;99.90
5055;DHT22;13829;48.990;8.346;2024-01-11T00:25:18;-2.40;99.90
5055;DHT22;13829;48.990;8.346;2024-01-11T00:27:45;-2.40;99.90
5055;DHT22;13829;48.990;8.346;2024-01-11T00:30:12;-2.30;99.90
5055;DHT22;13829;48.990;8.346;2024-01-11T00:32:39;-2.40;99.90
5055;DHT22;13829;48.990;8.346;2024-01-11T00:35:06;-2.40;99.90
5055;DHT22;13829;48.990;8.346;2024-01-11T00:37:35;-2.40;99.90
5055;DHT22;13829;48.990;8.346;2024-01-11T00:40:02;-2.40;99.90
5055;DHT22;13829;48.990;8.346;2024-01-11T00:42:30;-2.30;99.90
5055;DHT22;13829;48.990;8.346;2024-01-11T00:44:57;-2.30;99.90
5055;DHT22;13829;48.990;8.346;2024-01-11T00:47:24;-2.30;99.90
5055;DHT22;13829;48.990;8.346;2024-01-11T00:49:51;-2.30;99.90
5055;DHT22;13829;48.990;8.346;2024-01-11T00:52:19;-2.40;99.90
5055;DHT22;13829;48.990;8.346;2024-01-11T00:54:48;-2.30;99.90
5055;DHT22;13829;48.990;8.346;2024-01-11T00:57:15;-2.30;99.90
5055;DHT22;13829;48.990;8.346;2024-01-11T00:59:41;-2.30;99.90
5055;DHT22;13829;48.990;8.346;2024-01-11T01:02:09;-2.40;99.90
5055;DHT22;13829;48.990;8.346;2024-01-11T01:04:37;-2.50;99.90
5055;DHT22;13829;48.990;8.346;2024-01-11T01:07:05;-2.50;99.90
5055;DHT22;13829;48.990;8.346;2024-01-11T01:09:32;-2.50;99.90
5055;DHT22;13829;48.990;8.346;2024-01-11T01:12:01;-2.50;99.90
5055;DHT22;13829;48.990;8.346;2024-01-11T01:14:28;-2.40;99.90
5055;DHT22;13829;48.990;8.346;2024-01-11T01:16:56;-2.50;99.90
5055;DHT22;13829;48.990;8.346;2024-01-11T01:19:23;-2.40;99.90
5055;DHT22;13829;48.990;8.346;2024-01-11T01:21:50;-2.40;99.90
5055;DHT22;13829;48.990;8.346;2024-01-11T01:24:17;-2.50;99.90
5055;DHT22;13829;48.990;8.346;2024-01-11T01:26:43;-2.50;99.90
5055;DHT22;13829;48.990;8.346;2024-01-11T01:29:12;-2.50;99.90
5055;DHT22;13829;48.990;8.346;2024-01-11T01:31:39;-2.60;99.90
5055;DHT22;13829;48.990;8.346;2024-01-11T01:34:07;-2.60;99.90
5055;DHT22;13829;48.990;8.346;2024-01-11T01:36:34;-2.50;99.90
5055;DHT22;13829;48.990;8.346;2024-01-11T01:39:01;-2.60;99.90
5055;DHT22;13829;48.990;8.346;2024-01-11T01:41:28;-2.60;99.90
5055;DHT22;13829;48.990;8.346;2024-01-11T01:43:55;-2.60;99.90
5055;DHT22;13829;48.990;8.346;2024-01-11T01:46:25;-2.50;99.90
5055;DHT22;13829;48.990;8.346;2024-01-11T01:48:54;-2.50;99.90
5055;DHT22;13829;48.990;8.346;2024-01-11T01:51:25;-2.60;99.90
5055;DHT22;13829;48.990;8.346;2024-01-11T01:53:56;-2.60;99.90
5055;DHT22;13829;48.990;8.346;2024-01-11T01:56:25;-2.70;99.90
5055;DHT22;13829;48.990;8.346;2024-01-11T01:58:53;-2.80;99.90
5055;DHT22;13829;48.990;8.346;2024-01-11T02:01:23;-2.70;99.90
5055;DHT22;13829;48.990;8.346;2024-01-11T02:03:54;-2.80;99.90
5055;DHT22;13829;48.990;8.346;2024-01-11T02:06:23;-2.90;99.90
5055;DHT22;13829;48.990;8.346;2024-01-11T02:08:52;-3.00;99.90
5055;DHT22;13829;48.990;8.346;2024-01-11T02:11:20;-2.90;99.90
5055;DHT22;13829;48.990;8.346;2024-01-11T02:13:49;-2.80;99.90
5055;DHT22;13829;48.990;8.346;2024-01-11T02:16:16;-2.90;99.90
5055;DHT22;13829;48.990;8.346;2024-01-11T02:18:44;-3.00;99.90
5055;DHT22;13829;48.990;8.346;2024-01-11T02:21:13;-3.00;99.90
5055;DHT22;13829;48.990;8.346;2024-01-11T02:23:43;-3.00;99.90
5055;DHT22;13829;48.990;8.346;2024-01-11T02:26:14;-3.00;99.90
5055;DHT22;13829;48.990;8.346;2024-01-11T02:28:44;-3.00;99.90
5055;DHT22;13829;48.990;8.346;2024-01-11T02:31:12;-3.00;99.90
5055;DHT22;13829;48.990;8.346;2024-01-11T02:33:41;-3.10;99.90
5055;DHT22;13829;48.990;8.346;2024-01-11T02:36:09;-3.10;99.90
5055;DHT22;13829;48.990;8.346;2024-01-11T02:38:37;-3.10;99.90
5055;DHT22;13829;48.990;8.346;2024-01-11T02:41:05;-3.10;99.90
5055;DHT22;13829;48.990;8.346;2024-01-11T02:43:34;-3.00;99.90
5055;DHT22;13829;48.990;8.346;2024-01-11T02:46:01;-3.00;99.90
5055;DHT22;13829;48.990;8.346;2024-01-11T02:48:28;-3.00;99.90
5055;DHT22;13829;48.990;8.346;2024-01-11T02:50:56;-3.00;99.90
5055;DHT22;13829;48.990;8.346;2024-01-11T02:53:23;-3.10;99.90
5055;DHT22;13829;48.990;8.346;2024-01-11T02:55:50;-3.10;99.90
5055;DHT22;13829;48.990;8.346;2024-01-11T02:58:17;-3.10;99.90
5055;DHT22;13829;48.990;8.346;2024-01-11T03:00:46;-3.10;99.90
5055;DHT22;13829;48.990;8.346;2024-01-11T03:03:13;-3.10;99.90
5055;DHT22;13829;48.990;8.346;2024-01-11T03:05:40;-3.20;99.90
5055;DHT22;13829;48.990;8.346;2024-01-11T03:08:07;-3.20;99.90
5055;DHT22;13829;48.990;8.346;2024-01-11T03:10:33;-3.20;99.90
5055;DHT22;13829;48.990;8.346;2024-01-11T03:13:03;-3.00;99.90
5055;DHT22;13829;48.990;8.346;2024-01-11T03:15:30;-3.20;99.90
5055;DHT22;13829;48.990;8.346;2024-01-11T03:17:58;-3.30;99.90
5055;DHT22;13829;48.990;8.346;2024-01-11T03:20:25;-3.20;99.90
5055;DHT22;13829;48.990;8.346;2024-01-11T03:22:52;-3.30;99.90
5055;DHT22;13829;48.990;8.346;2024-01-11T03:25:20;-3.20;99.90
5055;DHT22;13829;48.990;8.346;2024-01-11T03:27:46;-3.30;99.90
5055;DHT22;13829;48.990;8.346;2024-01-11T03:30:14;-3.30;99.90
5055;DHT22;13829;48.990;8.346;2024-01-11T03:32:41;-3.30;99.90
5055;DHT22;13829;48.990;8.346;2024-01-11T03:35:10;-3.20;99.90
5055;DHT22;13829;48.990;8.346;2024-01-11T03:37:37;-3.10;99.90
5055;DHT22;13829;48.990;8.346;2024-01-11T03:40:04;-3.10;99.90
5055;DHT22;13829;48.990;8.346;2024-01-11T03:42:32;-3.20;99.90
5055;DHT22;13829;48.990;8.346;2024-01-11T03:44:59;-3.30;99.90
5055;DHT22;13829;48.990;8.346;2024-01-11T03:47:26;-3.20;99.90
5055;DHT22;13829;48.990;8.346;2024-01-11T03:49:53;-3.20;99.90
5055;DHT22;13829;48.990;8.346;2024-01-11T03:52:21;-3.20;99.90
5055;DHT22;13829;48.990;8.346;2024-01-11T03:54:48;-3.10;99.90
5055;DHT22;13829;48.990;8.346;2024-01-11T03:57:15;-3.20;99.90
5055;DHT22;13829;48.990;8.346;2024-01-11T03:59:42;-3.30;99.90
5055;DHT22;13829;48.990;8.346;2024-01-11T04:02:10;-3.30;99.90
5055;DHT22;13829;48.990;8.346;2024-01-11T04:04:37;-3.30;99.90
5055;DHT22;13829;48.990;8.346;2024-01-11T04:07:04;-3.20;99.90
5055;DHT22;13829;48.990;8.346;2024-01-11T04:09:33;-3.30;99.90
5055;DHT22;13829;48.990;8.346;2024-01-11T04:11:59;-3.20;99.90
5055;DHT22;13829;48.990;8.346;2024-01-11T04:14:26;-3.20;99.90
5055;DHT22;13829;48.990;8.346;2024-01-11T04:16:53;-3.20;99.90
5055;DHT22;13829;48.990;8.346;2024-01-11T04:19:20;-3.20;99.90
5055;DHT22;13829;48.990;8.346;2024-01-11T04:21:47;-3.10;99.90
5055;DHT22;13829;48.990;8.346;2024-01-11T04:24:14;-3.20;99.90
5055;DHT22;13829;48.990;8.346;2024-01-11T04:26:43;-3.30;99.90
5055;DHT22;13829;48.990;8.346;2024-01-11T04:29:10;-3.30;99.90
5055;DHT22;13829;48.990;8.346;2024-01-11T04:31:37;-3.30;99.90
5055;DHT22;13829;48.990;8.346;2024-01-11T04:34:04;-3.30;99.90
5055;DHT22;13829;48.990;8.346;2024-01-11T04:36:31;-3.40;99.90
5055;DHT22;13829;48.990;8.346;2024-01-11T04:38:58;-3.40;99.90
5055;DHT22;13829;48.990;8.346;2024-01-11T04:41:25;-3.50;99.90
5055;DHT22;13829;48.990;8.346;2024-01-11T04:43:53;-3.40;99.90
5055;DHT22;13829;48.990;8.346;2024-01-11T04:46:21;-3.40;99.90
5055;DHT22;13829;48.990;8.346;2024-01-11T04:48:50;-3.40;99.90
5055;DHT22;13829;48.990;8.346;2024-01-11T04:51:18;-3.40;99.90
5055;DHT22;13829;48.990;8.346;2024-01-11T04:53:45;-3.40;99.90
5055;DHT22;13829;48.990;8.346;2024-01-11T04:56:14;-3.30;99.90
5055;DHT22;13829;48.990;8.346;2024-01-11T04:58:44;-3.30;99.90
5055;DHT22;13829;48.990;8.346;2024-01-11T05:01:13;-3.30;99.90
5055;DHT22;13829;48.990;8.346;2024-01-11T05:03:41;-3.30;99.90
5055;DHT22;13829;48.990;8.346;2024-01-11T05:06:14;-3.30;99.90
5055;DHT22;13829;48.990;8.346;2024-01-11T05:08:42;-3.30;99.90
5055;DHT22;13829;48.990;8.346;2024-01-11T05:11:15;-3.30;99.90
5055;DHT22;13829;48.990;8.346;2024-01-11T05:13:43;-3.40;99.90
5055;DHT22;13829;48.990;8.346;2024-01-11T05:16:19;-3.40;99.90
5055;DHT22;13829;48.990;8.346;2024-01-11T05:18:47;-3.30;99.90
5055;DHT22;13829;48.990;8.346;2024-01-11T05:21:14;-3.30;99.90
5055;DHT22;13829;48.990;8.346;2024-01-11T05:23:41;-3.30;99.90
5055;DHT22;13829;48.990;8.346;2024-01-11T05:26:08;-3.20;99.90
5055;DHT22;13829;48.990;8.346;2024-01-11T05:28:36;-3.20;99.90
5055;DHT22;13829;48.990;8.346;2024-01-11T05:31:05;-3.20;99.90
5055;DHT22;13829;48.990;8.346;2024-01-11T05:33:34;-3.20;99.90
5055;DHT22;13829;48.990;8.346;2024-01-11T05:36:02;-3.20;99.90
5055;DHT22;13829;48.990;8.346;2024-01-11T05:38:30;-3.20;99.90
5055;DHT22;13829;48.990;8.346;2024-01-11T05:40:57;-3.20;99.90
5055;DHT22;13829;48.990;8.346;2024-01-11T05:43:24;-3.10;99.90
5055;DHT22;13829;48.990;8.346;2024-01-11T05:45:51;-3.10;99.90
5055;DHT22;13829;48.990;8.346;2024-01-11T05:48:18;-3.30;99.90
5055;DHT22;13829;48.990;8.346;2024-01-11T05:50:47;-3.20;99.90
5055;DHT22;13829;48.990;8.346;2024-01-11T05:53:14;-3.20;99.90
5055;DHT22;13829;48.990;8.346;2024-01-11T05:55:42;-3.20;99.90
5055;DHT22;13829;48.990;8.346;2024-01-11T05:58:09;-3.20;99.90
5055;DHT22;13829;48.990;8.346;2024-01-11T06:00:36;-3.20;99.90
5055;DHT22;13829;48.990;8.346;2024-01-11T06:03:03;-3.20;99.90
5055;DHT22;13829;48.990;8.346;2024-01-11T06:05:31;-3.20;99.90
5055;DHT22;13829;48.990;8.346;2024-01-11T06:07:59;-3.20;99.90
5055;DHT22;13829;48.990;8.346;2024-01-11T06:10:26;-3.10;99.90
5055;DHT22;13829;48.990;8.346;2024-01-11T06:12:53;-3.10;99.90
5055;DHT22;13829;48.990;8.346;2024-01-11T06:15:22;-3.10;99.90
5055;DHT22;13829;48.990;8.346;2024-01-11T06:17:49;-3.20;99.90
5055;DHT22;13829;48.990;8.346;2024-01-11T06:20:16;-3.20;99.90
5055;DHT22;13829;48.990;8.346;2024-01-11T06:22:43;-3.20;99.90
5055;DHT22;13829;48.990;8.346;2024-01-11T06:25:11;-3.30;99.90
5055;DHT22;13829;48.990;8.346;2024-01-11T06:27:38;-3.30;99.90
5055;DHT22;13829;48.990;8.346;2024-01-11T06:30:06;-3.30;99.90
5055;DHT22;13829;48.990;8.346;2024-01-11T06:32:34;-3.30;99.90
5055;DHT22;13829;48.990;8.346;2024-01-11T06:35:01;-3.40;99.90
5055;DHT22;13829;48.990;8.346;2024-01-11T06:37:28;-3.50;99.90
5055;DHT22;13829;48.990;8.346;2024-01-11T06:39:55;-3.50;99.90
5055;DHT22;13829;48.990;8.346;2024-01-11T06:42:24;-3.40;99.90
5055;DHT22;13829;48.990;8.346;2024-01-11T06:44:51;-3.50;99.90
5055;DHT22;13829;48.990;8.346;2024-01-11T06:47:18;-3.50;99.90
5055;DHT22;13829;48.990;8.346;2024-01-11T06:49:45;-3.50;99.90
5055;DHT22;13829;48.990;8.346;2024-01-11T06:52:12;-3.50;99.90
5055;DHT22;13829;48.990;8.346;2024-01-11T06:54:39;-3.50;99.90
5055;DHT22;13829;48.990;8.346;2024-01-11T06:57:07;-3.50;99.90
5055;DHT22;13829;48.990;8.346;2024-01-11T06:59:35;-3.30;99.90
5055;DHT22;13829;48.990;8.346;2024-01-11T07:02:03;-3.30;99.90
5055;DHT22;13829;48.990;8.346;2024-01-11T07:04:30;-3.30;99.90
5055;DHT22;13829;48.990;8.346;2024-01-11T07:06:57;-3.20;99.90
5055;DHT22;13829;48.990;8.346;2024-01-11T07:09:24;-3.30;99.90
5055;DHT22;13829;48.990;8.346;2024-01-11T07:11:51;-3.40;99.90
5055;DHT22;13829;48.990;8.346;2024-01-11T07:14:17;-3.40;99.90
5055;DHT22;13829;48.990;8.346;2024-01-11T07:16:46;-3.40;99.90
5055;DHT22;13829;48.990;8.346;2024-01-11T07:19:13;-3.30;99.90
5055;DHT22;13829;48.990;8.346;2024-01-11T07:21:40;-3.30;99.90
5055;DHT22;13829;48.990;8.346;2024-01-11T07:24:07;-3.30;99.90
5055;DHT22;13829;48.990;8.346;2024-01-11T07:26:34;-3.30;99.90
5055;DHT22;13829;48.990;8.346;2024-01-11T07:29:01;-3.30;99.90
5055;DHT22;13829;48.990;8.346;2024-01-11T07:31:28;-3.20;99.90
5055;DHT22;13829;48.990;8.346;2024-01-11T07:33:56;-3.20;99.90
5055;DHT22;13829;48.990;8.346;2024-01-11T07:36:23;-3.30;99.90
5055;DHT22;13829;48.990;8.346;2024-01-11T07:38:50;-3.30;99.90
5055;DHT22;13829;48.990;8.346;2024-01-11T07:41:17;-3.20;99.90
5055;DHT22;13829;48.990;8.346;2024-01-11T07:43:44;-3.20;99.90
5055;DHT22;13829;48.990;8.346;2024-01-11T07:46:11;-3.20;99.90
5055;DHT22;13829;48.990;8.346;2024-01-11T07:48:38;-3.20;99.90
5055;DHT22;13829;48.990;8.346;2024-01-11T07:51:06;-3.20;99.90
5055;DHT22;13829;48.990;8.346;2024-01-11T07:53:33;-3.20;99.90
5055;DHT22;13829;48.990;8.346;2024-01-11T07:56:00;-3.10;99.90
5055;DHT22;13829;48.990;8.346;2024-01-11T07:58:27;-3.00;99.90
5055;DHT22;13829;48.990;8.346;2024-01-11T08:00:54;-3.00;99.90
5055;DHT22;13829;48.990;8.346;2024-01-11T08:03:21;-3.00;99.90
5055;DHT22;13829;48.990;8.346;2024-01-11T08:05:48;-3.00;99.90
5055;DHT22;13829;48.990;8.346;2024-01-11T08:08:17;-3.00;99.90
5055;DHT22;13829;48.990;8.346;2024-01-11T08:10:44;-3.00;99.90
5055;DHT22;13829;48.990;8.346;2024-01-11T08:13:11;-3.00;99.90
5055;DHT22;13829;48.990;8.346;2024-01-11T08:15:38;-3.00;99.90
5055;DHT22;13829;48.990;8.346;2024-01-11T08:18:05;-3.10;99.90
5055;DHT22;13829;48.990;8.346;2024-01-11T08:20:32;-2.90;99.90
5055;DHT22;13829;48.990;8.346;2024-01-11T08:22:59;-2.90;99.90
5055;DHT22;13829;48.990;8.346;2024-01-11T08:25:28;-2.90;99.90
5055;DHT22;13829;48.990;8.346;2024-01-11T08:27:55;-3.00;99.90
5055;DHT22;13829;48.990;8.346;2024-01-11T08:30:22;-3.00;99.90
5055;DHT22;13829;48.990;8.346;2024-01-11T08:32:49;-3.00;99.90
5055;DHT22;13829;48.990;8.346;2024-01-11T08:35:16;-3.00;99.90
5055;DHT22;13829;48.990;8.346;2024-01-11T08:37:43;-3.00;99.90
5055;DHT22;13829;48.990;8.346;2024-01-11T08:40:10;-2.90;99.90
5055;DHT22;13829;48.990;8.346;2024-01-11T08:42:39;-2.80;99.90
5055;DHT22;13829;48.990;8.346;2024-01-11T08:45:07;-2.80;99.90
5055;DHT22;13829;48.990;8.346;2024-01-11T08:47:35;-2.70;99.90
5055;DHT22;13829;48.990;8.346;2024-01-11T08:50:04;-2.70;99.90
5055;DHT22;13829;48.990;8.346;2024-01-11T08:52:32;-2.70;99.90
5055;DHT22;13829;48.990;8.346;2024-01-11T08:54:59;-2.70;99.90
5055;DHT22;13829;48.990;8.346;2024-01-11T08:57:27;-2.70;99.90
5055;DHT22;13829;48.990;8.346;2024-01-11T08:59:55;-2.60;99.90
5055;DHT22;13829;48.990;8.346;2024-01-11T09:02:22;-2.40;99.90
5055;DHT22;13829;48.990;8.346;2024-01-11T09:04:49;-2.40;99.90
5055;DHT22;13829;48.990;8.346;2024-01-11T09:07:16;-2.40;99.90
5055;DHT22;13829;48.990;8.346;2024-01-11T09:09:43;-2.30;99.90
5055;DHT22;13829;48.990;8.346;2024-01-11T09:12:11;-2.40;99.90
5055;DHT22;13829;48.990;8.346;2024-01-11T09:14:38;-2.30;99.90
5055;DHT22;13829;48.990;8.346;2024-01-11T09:17:07;-2.30;99.90
5055;DHT22;13829;48.990;8.346;2024-01-11T09:19:34;-2.20;99.90
5055;DHT22;13829;48.990;8.346;2024-01-11T09:22:03;-2.00;99.90
5055;DHT22;13829;48.990;8.346;2024-01-11T09:24:30;-2.10;99.90
5055;DHT22;13829;48.990;8.346;2024-01-11T09:26:57;-1.90;99.90
5055;DHT22;13829;48.990;8.346;2024-01-11T09:29:24;-1.80;99.90
5055;DHT22;13829;48.990;8.346;2024-01-11T09:31:51;-1.80;99.90
5055;DHT22;13829;48.990;8.346;2024-01-11T09:34:19;-1.80;99.90
5055;DHT22;13829;48.990;8.346;2024-01-11T09:36:46;-1.80;99.90
5055;DHT22;13829;48.990;8.346;2024-01-11T09:39:13;-1.80;99.90
5055;DHT22;13829;48.990;8.346;2024-01-11T09:41:42;-1.60;99.90
5055;DHT22;13829;48.990;8.346;2024-01-11T09:44:25;-1.60;99.90
5055;DHT22;13829;48.990;8.346;2024-01-11T09:46:53;-1.70;99.90
5055;DHT22;13829;48.990;8.346;2024-01-11T09:49:22;-1.60;99.90
5055;DHT22;13829;48.990;8.346;2024-01-11T09:51:51;-1.50;99.90
5055;DHT22;13829;48.990;8.346;2024-01-11T09:54:19;-1.50;99.90
5055;DHT22;13829;48.990;8.346;2024-01-11T09:56:48;-1.50;99.90
5055;DHT22;13829;48.990;8.346;2024-01-11T09:59:18;-1.40;99.90
5055;DHT22;13829;48.990;8.346;2024-01-11T10:01:47;-1.30;99.90
5055;DHT22;13829;48.990;8.346;2024-01-11T10:04:16;-1.30;99.90
5055;DHT22;13829;48.990;8.346;2024-01-11T10:06:45;-1.30;99.90
5055;DHT22;13829;48.990;8.346;2024-01-11T10:09:13;-1.30;99.90
5055;DHT22;13829;48.990;8.346;2024-01-11T10:11:41;-1.20;99.90
5055;DHT22;13829;48.990;8.346;2024-01-11T10:14:12;-1.10;99.90
5055;DHT22;13829;48.990;8.346;2024-01-11T10:16:39;-1.10;99.90
5055;DHT22;13829;48.990;8.346;2024-01-11T10:19:08;-1.00;99.90
5055;DHT22;13829;48.990;8.346;2024-01-11T10:21:38;-0.90;99.90
5055;DHT22;13829;48.990;8.346;2024-01-11T10:24:07;-0.90;99.90
5055;DHT22;13829;48.990;8.346;2024-01-11T10:26:35;-0.80;99.90
5055;DHT22;13829;48.990;8.346;2024-01-11T10:29:03;-0.70;99.90
5055;DHT22;13829;48.990;8.346;2024-01-11T10:31:36;-0.70;99.90
5055;DHT22;13829;48.990;8.346;2024-01-11T10:34:04;-0.70;99.90
5055;DHT22;13829;48.990;8.346;2024-01-11T10:36:32;-0.60;99.90
5055;DHT22;13829;48.990;8.346;2024-01-11T10:39:01;-0.50;99.90
5055;DHT22;13829;48.990;8.346;2024-01-11T10:41:38;-0.60;99.90
5055;DHT22;13829;48.990;8.346;2024-01-11T10:44:08;-0.50;99.90
5055;DHT22;13829;48.990;8.346;2024-01-11T10:46:45;-0.50;99.90
5055;DHT22;13829;48.990;8.346;2024-01-11T10:49:17;-0.40;99.90
5055;DHT22;13829;48.990;8.346;2024-01-11T10:51:49;-0.40;99.90
5055;DHT22;13829;48.990;8.346;2024-01-11T10:54:22;-0.30;99.90
5055;DHT22;13829;48.990;8.346;2024-01-11T10:56:51;-0.10;99.90
5055;DHT22;13829;48.990;8.346;2024-01-11T10:59:20;-0.10;99.90
5055;DHT22;13829;48.990;8.346;2024-01-11T11:01:51;0.00;99.90
5055;DHT22;13829;48.990;8.346;2024-01-11T11:04:22;-0.10;99.90
5055;DHT22;13829;48.990;8.346;2024-01-11T11:06:51;0.00;99.90
5055;DHT22;13829;48.990;8.346;2024-01-11T11:09:22;0.10;99.90
5055;DHT22;13829;48.990;8.346;2024-01-11T11:11:53;0.10;99.90
5055;DHT22;13829;48.990;8.346;2024-01-11T11:14:24;0.10;99.90
5055;DHT22;13829;48.990;8.346;2024-01-11T11:16:52;0.00;99.90
5055;DHT22;13829;48.990;8.346;2024-01-11T11:19:19;0.00;99.90
5055;DHT22;13829;48.990;8.346;2024-01-11T11:21:48;0.10;99.90
5055;DHT22;13829;48.990;8.346;2024-01-11T11:24:16;0.00;99.90
5055;DHT22;13829;48.990;8.346;2024-01-11T11:26:44;0.00;99.90
5055;DHT22;13829;48.990;8.346;2024-01-11T11:29:12;0.10;99.90
5055;DHT22;13829;48.990;8.346;2024-01-11T11:31:43;0.30;99.90
5055;DHT22;13829;48.990;8.346;2024-01-11T11:34:13;0.30;99.90
5055;DHT22;13829;48.990;8.346;2024-01-11T11:36:40;0.30;99.90
5055;DHT22;13829;48.990;8.346;2024-01-11T11:39:09;0.30;99.90
5055;DHT22;13829;48.990;8.346;2024-01-11T11:41:37;0.30;99.90
5055;DHT22;13829;48.990;8.346;2024-01-11T11:44:05;0.30;99.90
5055;DHT22;13829;48.990;8.346;2024-01-11T11:46:34;0.30;99.90
5055;DHT22;13829;48.990;8.346;2024-01-11T11:49:01;0.30;99.90
5055;DHT22;13829;48.990;8.346;2024-01-11T11:51:27;0.40;99.90
5055;DHT22;13829;48.990;8.346;2024-01-11T11:53:54;0.50;99.90
5055;DHT22;13829;48.990;8.346;2024-01-11T11:56:22;0.60;99.90
5055;DHT22;13829;48.990;8.346;2024-01-11T11:58:49;0.60;99.90
5055;DHT22;13829;48.990;8.346;2024-01-11T12:01:18;0.70;99.90
5055;DHT22;13829;48.990;8.346;2024-01-11T12:03:47;0.70;99.90
5055;DHT22;13829;48.990;8.346;2024-01-11T12:06:16;0.90;99.90
5055;DHT22;13829;48.990;8.346;2024-01-11T12:08:44;0.90;99.80
5055;DHT22;13829;48.990;8.346;2024-01-11T12:11:13;0.90;99.90
5055;DHT22;13829;48.990;8.346;2024-01-11T12:13:41;0.90;99.90
5055;DHT22;13829;48.990;8.346;2024-01-11T12:16:10;0.90;99.90
5055;DHT22;13829;48.990;8.346;2024-01-11T12:18:37;0.90;99.90
5055;DHT22;13829;48.990;8.346;2024-01-11T12:21:06;0.90;99.90
5055;DHT22;13829;48.990;8.346;2024-01-11T12:23:34;1.00;99.90
5055;DHT22;13829;48.990;8.346;2024-01-11T12:26:02;1.10;99.90
5055;DHT22;13829;48.990;8.346;2024-01-11T12:28:31;1.20;99.80
5055;DHT22;13829;48.990;8.346;2024-01-11T12:30:59;1.20;99.80
5055;DHT22;13829;48.990;8.346;2024-01-11T12:33:26;1.30;99.60
5055;DHT22;13829;48.990;8.346;2024-01-11T12:35:53;1.30;99.40
5055;DHT22;13829;48.990;8.346;2024-01-11T12:38:22;1.30;99.50
5055;DHT22;13829;48.990;8.346;2024-01-11T12:40:49;1.30;99.40
5055;DHT22;13829;48.990;8.346;2024-01-11T12:43:17;1.40;99.40
5055;DHT22;13829;48.990;8.346;2024-01-11T12:45:45;1.40;99.30
5055;DHT22;13829;48.990;8.346;2024-01-11T12:48:12;1.40;99.30
5055;DHT22;13829;48.990;8.346;2024-01-11T12:50:42;1.50;99.10
5055;DHT22;13829;48.990;8.346;2024-01-11T12:53:10;1.50;99.20
5055;DHT22;13829;48.990;8.346;2024-01-11T12:55:44;1.50;99.20
5055;DHT22;13829;48.990;8.346;2024-01-11T12:58:12;1.50;99.10
5055;DHT22;13829;48.990;8.346;2024-01-11T13:00:39;1.40;99.10
5055;DHT22;13829;48.990;8.346;2024-01-11T13:03:06;1.50;99.20
5055;DHT22;13829;48.990;8.346;2024-01-11T13:05:35;1.60;99.30
5055;DHT22;13829;48.990;8.346;2024-01-11T13:08:07;1.80;99.00
5055;DHT22;13829;48.990;8.346;2024-01-11T13:10:35;1.80;98.90
5055;DHT22;13829;48.990;8.346;2024-01-11T13:13:04;1.90;98.70
5055;DHT22;13829;48.990;8.346;2024-01-11T13:15:31;1.90;98.50
5055;DHT22;13829;48.990;8.346;2024-01-11T13:17:59;1.90;98.60
5055;DHT22;13829;48.990;8.346;2024-01-11T13:20:27;1.90;98.90
5055;DHT22;13829;48.990;8.346;2024-01-11T13:23:13;1.90;98.80
5055;DHT22;13829;48.990;8.346;2024-01-11T13:25:42;2.00;99.10
5055;DHT22;13829;48.990;8.346;2024-01-11T13:28:11;2.00;98.90
5055;DHT22;13829;48.990;8.346;2024-01-11T13:30:38;2.10;98.50
5055;DHT22;13829;48.990;8.346;2024-01-11T13:33:06;2.10;98.60
5055;DHT22;13829;48.990;8.346;2024-01-11T13:35:34;2.00;98.60
5055;DHT22;13829;48.990;8.346;2024-01-11T13:38:01;2.00;98.70
5055;DHT22;13829;48.990;8.346;2024-01-11T13:40:28;1.90;98.40
5055;DHT22;13829;48.990;8.346;2024-01-11T13:42:55;1.90;98.70
5055;DHT22;13829;48.990;8.346;2024-01-11T13:45:24;1.90;98.60
5055;DHT22;13829;48.990;8.346;2024-01-11T13:47:52;2.00;98.60
5055;DHT22;13829;48.990;8.346;2024-01-11T13:50:19;2.00;98.40
5055;DHT22;13829;48.990;8.346;2024-01-11T13:52:47;2.00;98.50
5055;DHT22;13829;48.990;8.346;2024-01-11T13:55:14;2.00;98.50
5055;DHT22;13829;48.990;8.346;2024-01-11T13:57:41;2.00;98.90
5055;DHT22;13829;48.990;8.346;2024-01-11T14:00:09;1.90;98.50
5055;DHT22;13829;48.990;8.346;2024-01-11T14:02:39;1.90;98.80
5055;DHT22;13829;48.990;8.346;2024-01-11T14:05:06;1.90;98.80
5055;DHT22;13829;48.990;8.346;2024-01-11T14:07:36;1.90;98.80
5055;DHT22;13829;48.990;8.346;2024-01-11T14:10:05;1.90;98.70
5055;DHT22;13829;48.990;8.346;2024-01-11T14:12:33;1.80;99.20
5055;DHT22;13829;48.990;8.346;2024-01-11T14:15:01;1.80;99.00
5055;DHT22;13829;48.990;8.346;2024-01-11T14:17:29;1.80;99.00
5055;DHT22;13829;48.990;8.346;2024-01-11T14:19:57;1.90;98.80
5055;DHT22;13829;48.990;8.346;2024-01-11T14:22:26;1.80;98.70
5055;DHT22;13829;48.990;8.346;2024-01-11T14:24:53;1.90;98.70
5055;DHT22;13829;48.990;8.346;2024-01-11T14:27:20;1.90;98.80
5055;DHT22;13829;48.990;8.346;2024-01-11T14:29:47;1.90;98.60
5055;DHT22;13829;48.990;8.346;2024-01-11T14:32:15;1.80;98.60
5055;DHT22;13829;48.990;8.346;2024-01-11T14:34:43;1.80;98.80
5055;DHT22;13829;48.990;8.346;2024-01-11T14:37:12;1.80;98.60
5055;DHT22;13829;48.990;8.346;2024-01-11T14:39:40;1.80;98.80
5055;DHT22;13829;48.990;8.346;2024-01-11T14:42:07;1.80;98.90
5055;DHT22;13829;48.990;8.346;2024-01-11T14:44:35;1.80;98.60
5055;DHT22;13829;48.990;8.346;2024-01-11T14:47:02;1.80;98.70
5055;DHT22;13829;48.990;8.346;2024-01-11T14:49:30;1.70;98.70
5055;DHT22;13829;48.990;8.346;2024-01-11T14:51:57;1.70;98.90
5055;DHT22;13829;48.990;8.346;2024-01-11T14:54:25;1.80;98.60
5055;DHT22;13829;48.990;8.346;2024-01-11T14:56:53;1.70;98.60
5055;DHT22;13829;48.990;8.346;2024-01-11T14:59:20;1.70;98.60
5055;DHT22;13829;48.990;8.346;2024-01-11T15:01:47;1.80;98.50
5055;DHT22;13829;48.990;8.346;2024-01-11T15:04:13;1.80;98.40
5055;DHT22;13829;48.990;8.346;2024-01-11T15:06:40;1.80;98.60
5055;DHT22;13829;48.990;8.346;2024-01-11T15:09:07;1.70;98.70
5055;DHT22;13829;48.990;8.346;2024-01-11T15:11:39;1.60;98.70
5055;DHT22;13829;48.990;8.346;2024-01-11T15:14:06;1.60;98.70
5055;DHT22;13829;48.990;8.346;2024-01-11T15:16:34;1.70;98.60
5055;DHT22;13829;48.990;8.346;2024-01-11T15:19:01;1.60;98.90
5055;DHT22;13829;48.990;8.346;2024-01-11T15:21:29;1.50;99.10
5055;DHT22;13829;48.990;8.346;2024-01-11T15:23:56;1.40;99.30
5055;DHT22;13829;48.990;8.346;2024-01-11T15:26:24;1.50;99.50
5055;DHT22;13829;48.990;8.346;2024-01-11T15:28:53;1.40;99.30
5055;DHT22;13829;48.990;8.346;2024-01-11T15:31:20;1.50;99.20
5055;DHT22;13829;48.990;8.346;2024-01-11T15:33:46;1.50;99.40
5055;DHT22;13829;48.990;8.346;2024-01-11T15:36:13;1.50;99.40
5055;DHT22;13829;48.990;8.346;2024-01-11T15:38:40;1.40;99.50
5055;DHT22;13829;48.990;8.346;2024-01-11T15:41:07;1.30;99.70
5055;DHT22;13829;48.990;8.346;2024-01-11T15:43:35;1.30;99.60
5055;DHT22;13829;48.990;8.346;2024-01-11T15:46:02;1.20;99.70
5055;DHT22;13829;48.990;8.346;2024-01-11T15:48:30;1.20;99.70
5055;DHT22;13829;48.990;8.346;2024-01-11T15:50:57;1.10;99.60
5055;DHT22;13829;48.990;8.346;2024-01-11T15:53:23;1.00;99.80